createdAt,value
2022-10-21T00:00:39.907Z,22.10
2022-10-21T00:03:06.629Z,22.11
2022-10-21T00:05:32.874Z,22.12
2022-10-21T00:07:59.180Z,22.14
2022-10-21T00:10:25.584Z,22.15
2022-10-21T00:12:51.871Z,22.17
2022-10-21T00:15:18.203Z,22.17
2022-10-21T00:17:44.848Z,22.17
2022-10-21T00:20:12.651Z,22.18
2022-10-21T00:22:39.517Z,22.18
2022-10-21T00:25:06.172Z,22.18
2022-10-21T00:27:32.428Z,22.21
2022-10-21T00:29:58.715Z,22.20
2022-10-21T00:32:24.996Z,22.21
2022-10-21T00:34:51.232Z,22.22
2022-10-21T00:37:17.656Z,22.23
2022-10-21T00:39:44.336Z,22.24
2022-10-21T00:42:15.183Z,22.23
2022-10-21T00:44:43.752Z,22.25
2022-10-21T00:47:12.875Z,22.25
2022-10-21T00:49:44.841Z,22.24
2022-10-21T00:52:13.389Z,22.24
2022-10-21T00:54:40.753Z,22.24
2022-10-21T00:57:07.749Z,22.23
2022-10-21T00:59:35.942Z,22.23
2022-10-21T01:02:02.288Z,22.24
2022-10-21T01:04:28.595Z,22.24
2022-10-21T01:06:55.298Z,22.25
2022-10-21T01:09:21.959Z,22.24
2022-10-21T01:11:48.705Z,22.24
2022-10-21T01:14:21.909Z,22.26
2022-10-21T01:16:51.266Z,22.25
2022-10-21T01:19:39.744Z,22.25
2022-10-21T01:22:15.568Z,22.26
2022-10-21T01:24:47.757Z,22.26
2022-10-21T01:27:49.582Z,22.27
2022-10-21T01:30:35.642Z,22.25
2022-10-21T01:33:24.989Z,22.26
2022-10-21T01:35:57.498Z,22.24
2022-10-21T01:38:34.590Z,22.22
2022-10-21T01:41:16.052Z,22.24
2022-10-21T01:44:04.152Z,22.21
2022-10-21T01:46:38.364Z,22.20
2022-10-21T01:49:07.893Z,22.20
2022-10-21T01:51:35.371Z,22.18
2022-10-21T01:54:04.944Z,22.16
2022-10-21T01:56:31.645Z,22.14
2022-10-21T01:58:58.994Z,22.13
2022-10-21T02:01:25.344Z,22.08
2022-10-21T02:03:54.751Z,22.06
2022-10-21T02:06:21.070Z,22.01
2022-10-21T02:08:47.678Z,21.97
2022-10-21T02:11:14.172Z,21.95
2022-10-21T02:13:48.529Z,21.91
2022-10-21T02:16:17.606Z,21.86
2022-10-21T02:18:44.053Z,21.84
2022-10-21T02:21:13.195Z,21.77
2022-10-21T02:23:42.343Z,21.73
2022-10-21T02:26:08.944Z,21.68
2022-10-21T02:28:35.380Z,21.64
2022-10-21T02:31:25.117Z,21.59
2022-10-21T02:33:55.926Z,21.52
2022-10-21T02:36:28.690Z,21.46
2022-10-21T02:38:58.178Z,21.41
2022-10-21T02:41:27.027Z,21.37
2022-10-21T02:43:57.111Z,21.30
2022-10-21T02:46:24.055Z,21.26
2022-10-21T02:48:50.312Z,21.20
2022-10-21T02:51:16.801Z,21.15
2022-10-21T02:53:43.264Z,21.10
2022-10-21T02:56:09.516Z,21.04
2022-10-21T02:58:36.339Z,20.97
2022-10-21T03:01:02.630Z,20.91
2022-10-21T03:03:29.819Z,20.84
2022-10-21T03:05:56.502Z,20.76
2022-10-21T03:08:22.804Z,20.68
2022-10-21T03:10:52.987Z,20.61
2022-10-21T03:13:20.106Z,20.53
2022-10-21T03:15:46.421Z,20.48
2022-10-21T03:18:12.852Z,20.42
2022-10-21T03:20:39.216Z,20.36
2022-10-21T03:23:05.501Z,20.32
2022-10-21T03:25:35.480Z,20.27
2022-10-21T03:28:02.118Z,20.20
2022-10-21T03:30:28.326Z,20.15
2022-10-21T03:32:54.539Z,20.09
2022-10-21T03:35:20.767Z,20.03
2022-10-21T03:37:47.235Z,19.98
2022-10-21T03:40:13.690Z,19.92
2022-10-21T03:42:40.662Z,19.89
2022-10-21T03:45:07.499Z,19.84
2022-10-21T03:47:33.943Z,19.80
2022-10-21T03:50:00.221Z,19.75
2022-10-21T03:52:26.478Z,19.70
2022-10-21T03:54:52.815Z,19.65
2022-10-21T03:57:19.085Z,19.60
2022-10-21T03:59:45.508Z,19.56
2022-10-21T04:02:11.794Z,19.50
2022-10-21T04:04:38.080Z,19.46
2022-10-21T04:07:04.346Z,19.42
2022-10-21T04:09:30.558Z,19.39
2022-10-21T04:11:56.823Z,19.36
2022-10-21T04:14:23.160Z,19.31
2022-10-21T04:16:53.562Z,19.30
2022-10-21T04:19:28.420Z,19.26
2022-10-21T04:21:54.665Z,19.22
2022-10-21T04:24:21.106Z,19.18
2022-10-21T04:26:47.512Z,19.15
2022-10-21T04:29:13.804Z,19.12
2022-10-21T04:31:40.347Z,19.11
2022-10-21T04:34:06.625Z,19.06
2022-10-21T04:36:32.917Z,19.04
2022-10-21T04:38:59.358Z,19.02
2022-10-21T04:41:25.574Z,19.00
2022-10-21T04:43:52.165Z,19.00
2022-10-21T04:46:20.733Z,18.97
2022-10-21T04:48:47.000Z,18.96
2022-10-21T04:51:13.286Z,18.93
2022-10-21T04:53:39.709Z,18.93
2022-10-21T04:56:06.430Z,18.93
2022-10-21T04:58:32.669Z,18.92
2022-10-21T05:00:58.984Z,18.90
2022-10-21T05:03:25.436Z,18.90
2022-10-21T05:05:52.527Z,18.88
2022-10-21T05:08:19.292Z,18.89
2022-10-21T05:10:45.778Z,18.89
2022-10-21T05:13:12.144Z,18.88
2022-10-21T05:15:38.729Z,18.87
2022-10-21T05:18:04.973Z,18.87
2022-10-21T05:20:31.431Z,18.87
2022-10-21T05:22:57.833Z,18.88
2022-10-21T05:25:24.273Z,18.88
2022-10-21T05:27:50.708Z,18.89
2022-10-21T05:30:17.041Z,18.91
2022-10-21T05:32:43.292Z,18.91
2022-10-21T05:35:12.140Z,18.91
2022-10-21T05:37:38.883Z,18.92
2022-10-21T05:40:05.571Z,18.91
2022-10-21T05:42:31.896Z,18.90
2022-10-21T05:44:58.336Z,18.90
2022-10-21T05:47:24.932Z,18.90
2022-10-21T05:49:51.233Z,18.89
2022-10-21T05:52:17.517Z,18.89
2022-10-21T05:54:44.123Z,18.88
2022-10-21T05:57:10.541Z,18.88
2022-10-21T05:59:38.101Z,18.88
2022-10-21T06:02:04.397Z,18.89
2022-10-21T06:04:32.906Z,18.89
2022-10-21T06:07:02.435Z,18.90
2022-10-21T06:09:28.755Z,18.91
2022-10-21T06:11:55.038Z,18.91
2022-10-21T06:14:21.291Z,18.93
2022-10-21T06:16:47.536Z,18.94
2022-10-21T06:19:13.867Z,18.96
2022-10-21T06:21:41.201Z,18.97
2022-10-21T06:24:07.490Z,18.98
2022-10-21T06:26:36.178Z,18.99
2022-10-21T06:29:03.448Z,19.03
2022-10-21T06:31:29.889Z,19.04
2022-10-21T06:33:56.312Z,19.06
2022-10-21T06:36:22.537Z,19.07
2022-10-21T06:38:48.816Z,19.10
2022-10-21T06:41:15.399Z,19.11
2022-10-21T06:43:42.689Z,19.12
2022-10-21T06:46:10.626Z,19.15
2022-10-21T06:48:37.245Z,19.16
2022-10-21T06:51:05.406Z,19.17
2022-10-21T06:53:34.060Z,19.21
2022-10-21T06:56:16.963Z,19.23
2022-10-21T06:58:48.116Z,19.28
2022-10-21T07:01:34.427Z,19.31
2022-10-21T07:04:08.314Z,19.35
2022-10-21T07:06:34.819Z,19.38
2022-10-21T07:09:01.342Z,19.42
2022-10-21T07:11:27.999Z,19.47
2022-10-21T07:13:54.718Z,19.51
2022-10-21T07:16:28.259Z,19.56
2022-10-21T07:18:55.201Z,19.61
2022-10-21T07:21:22.585Z,19.66
2022-10-21T07:23:51.229Z,19.72
2022-10-21T07:26:18.064Z,19.77
2022-10-21T07:28:47.444Z,19.84
2022-10-21T07:31:17.791Z,19.90
2022-10-21T07:33:44.079Z,19.95
2022-10-21T07:36:12.338Z,20.02
2022-10-21T07:38:38.689Z,20.10
2022-10-21T07:41:05.238Z,20.17
2022-10-21T07:43:32.076Z,20.24
2022-10-21T07:46:01.861Z,20.29
2022-10-21T07:48:30.806Z,20.36
2022-10-21T07:51:02.347Z,20.43
2022-10-21T07:53:28.558Z,20.47
2022-10-21T07:56:02.786Z,20.53
2022-10-21T07:58:29.685Z,20.60
2022-10-21T08:01:03.321Z,20.66
2022-10-21T08:03:29.850Z,20.72
2022-10-21T08:05:56.564Z,20.79
2022-10-21T08:08:23.066Z,20.86
2022-10-21T08:13:22.115Z,20.99
2022-10-21T08:15:51.387Z,21.07
2022-10-21T08:18:18.585Z,21.13
2022-10-21T08:20:45.922Z,21.20
2022-10-21T08:23:12.973Z,21.25
2022-10-21T08:25:39.395Z,21.30
2022-10-21T08:28:06.513Z,21.36
2022-10-21T08:30:33.067Z,21.40
2022-10-21T08:32:59.493Z,21.46
2022-10-21T08:35:26.921Z,21.47
2022-10-21T08:37:53.875Z,21.50
2022-10-21T08:40:20.829Z,21.53
2022-10-21T08:42:47.844Z,21.54
2022-10-21T08:45:38.229Z,21.55
2022-10-21T08:48:06.913Z,21.57
2022-10-21T08:50:37.050Z,21.57
2022-10-21T08:53:10.543Z,21.57
2022-10-21T08:55:38.694Z,21.58
2022-10-21T08:58:05.109Z,21.58
2022-10-21T09:00:34.148Z,21.59
2022-10-21T09:03:04.817Z,21.60
2022-10-21T09:05:56.098Z,21.61
2022-10-21T09:08:30.446Z,21.62
2022-10-21T09:10:59.648Z,21.65
2022-10-21T09:13:28.720Z,21.67
2022-10-21T09:16:03.417Z,21.68
2022-10-21T09:18:41.141Z,21.69
2022-10-21T09:21:18.225Z,21.68
2022-10-21T09:23:51.295Z,21.69
2022-10-21T09:26:30.160Z,21.68
2022-10-21T09:28:56.896Z,21.69
2022-10-21T09:31:23.159Z,21.71
2022-10-21T09:33:53.639Z,21.73
2022-10-21T09:36:25.879Z,21.75
2022-10-21T09:38:56.219Z,21.78
2022-10-21T09:41:29.611Z,21.79
2022-10-21T09:43:56.150Z,21.81
2022-10-21T09:46:22.388Z,21.84
2022-10-21T09:51:40.094Z,21.88
2022-10-21T09:54:09.598Z,21.89
2022-10-21T09:56:39.800Z,21.91
2022-10-21T09:59:11.425Z,21.89
2022-10-21T10:01:38.882Z,21.89
2022-10-21T10:04:11.563Z,21.89
2022-10-21T10:06:39.680Z,21.89
2022-10-21T10:09:07.496Z,21.90
2022-10-21T10:11:33.922Z,21.91
2022-10-21T10:14:16.599Z,21.92
2022-10-21T10:16:43.006Z,21.93
2022-10-21T10:19:17.600Z,21.94
2022-10-21T10:21:44.807Z,21.95
2022-10-21T10:24:18.595Z,21.95
2022-10-21T10:26:45.594Z,21.96
2022-10-21T10:29:15.043Z,21.96
2022-10-21T10:31:50.599Z,21.95
2022-10-21T10:34:26.776Z,21.96
2022-10-21T10:37:00.204Z,21.96
2022-10-21T10:39:30.438Z,21.99
2022-10-21T10:41:59.311Z,22.00
2022-10-21T10:44:34.790Z,22.01
2022-10-21T10:47:02.707Z,22.04
2022-10-21T10:49:35.314Z,22.04
2022-10-21T10:52:05.018Z,22.05
2022-10-21T10:54:31.288Z,22.08
2022-10-21T10:57:03.160Z,22.10
2022-10-21T10:59:35.489Z,22.13
2022-10-21T11:02:07.633Z,22.16
2022-10-21T11:04:37.043Z,22.20
2022-10-21T11:07:23.622Z,22.24
2022-10-21T11:09:51.480Z,22.27
2022-10-21T11:12:22.092Z,22.34
2022-10-21T11:14:51.495Z,22.40
2022-10-21T11:17:22.052Z,22.45
2022-10-21T11:20:06.365Z,22.51
2022-10-21T11:22:38.457Z,22.57
2022-10-21T11:25:16.970Z,22.61
2022-10-21T11:27:43.225Z,22.66
2022-10-21T11:30:09.501Z,22.70
2022-10-21T11:32:54.658Z,22.72
2022-10-21T11:35:39.790Z,22.74
2022-10-21T11:38:23.389Z,22.73
2022-10-21T11:40:54.143Z,22.73
2022-10-21T11:43:23.510Z,22.72
2022-10-21T11:45:55.737Z,22.72
2022-10-21T11:48:29.513Z,22.71
2022-10-21T11:50:55.765Z,22.70
2022-10-21T11:53:40.936Z,22.70
2022-10-21T11:56:13.311Z,22.70
2022-10-21T11:58:57.910Z,22.70
2022-10-21T12:01:29.177Z,22.72
2022-10-21T12:04:16.223Z,22.73
2022-10-21T12:06:57.948Z,22.74
2022-10-21T12:09:29.125Z,22.77
2022-10-21T12:12:16.260Z,22.78
2022-10-21T12:14:48.951Z,22.80
2022-10-21T12:17:19.587Z,22.80
2022-10-21T12:19:52.324Z,22.81
2022-10-21T12:22:19.046Z,22.84
2022-10-21T12:25:04.303Z,22.87
2022-10-21T12:27:39.636Z,22.90
2022-10-21T12:30:13.065Z,22.94
2022-10-21T12:32:43.229Z,22.99
2022-10-21T12:35:16.738Z,23.04
2022-10-21T12:37:44.515Z,23.11
2022-10-21T12:40:12.965Z,23.16
2022-10-21T12:42:44.779Z,23.24
2022-10-21T12:45:25.350Z,23.29
2022-10-21T12:47:52.909Z,23.37
2022-10-21T12:50:26.052Z,23.42
2022-10-21T12:53:06.607Z,23.49
2022-10-21T12:55:39.807Z,23.54
2022-10-21T12:58:16.882Z,23.59
2022-10-21T13:00:43.161Z,23.64
2022-10-21T13:03:10.974Z,23.68
2022-10-21T13:05:37.183Z,23.72
2022-10-21T13:08:26.307Z,23.76
2022-10-21T13:11:05.247Z,23.82
2022-10-21T13:13:42.226Z,23.90
2022-10-21T13:16:20.637Z,23.97
2022-10-21T13:19:26.147Z,24.05
2022-10-21T13:22:03.303Z,24.14
2022-10-21T13:24:33.688Z,24.21
2022-10-21T13:27:01.846Z,24.30
2022-10-21T13:29:30.471Z,24.38
2022-10-21T13:32:21.828Z,24.45
2022-10-21T13:34:51.225Z,24.52
2022-10-21T13:37:25.947Z,24.54
2022-10-21T13:39:52.865Z,24.58
2022-10-21T13:42:22.861Z,24.61
2022-10-21T13:44:52.458Z,24.65
2022-10-21T13:47:28.218Z,24.66
2022-10-21T13:49:55.670Z,24.67
2022-10-21T13:52:26.650Z,24.69
2022-10-21T13:55:00.235Z,24.67
2022-10-21T13:57:33.563Z,24.67
2022-10-21T14:00:05.221Z,24.65
2022-10-21T14:02:31.742Z,24.60
2022-10-21T14:04:58.315Z,24.57
2022-10-21T14:07:24.911Z,24.54
2022-10-21T14:09:52.728Z,24.51
2022-10-21T14:12:35.620Z,24.48
2022-10-21T14:15:05.079Z,24.45
2022-10-21T14:17:31.854Z,24.42
2022-10-21T14:20:02.914Z,24.39
2022-10-21T14:22:31.430Z,24.35
2022-10-21T14:24:58.756Z,24.32
2022-10-21T14:27:30.100Z,24.30
2022-10-21T14:29:56.961Z,24.29
2022-10-21T14:32:25.365Z,24.28
2022-10-21T14:34:59.566Z,24.29
2022-10-21T14:37:26.069Z,24.28
2022-10-21T14:39:52.419Z,24.29
2022-10-21T14:42:23.447Z,24.29
2022-10-21T14:44:51.660Z,24.30
2022-10-21T14:47:19.272Z,24.30
2022-10-21T14:49:47.674Z,24.30
2022-10-21T14:52:21.726Z,24.29
2022-10-21T14:54:54.043Z,24.30
2022-10-21T14:57:38.974Z,24.31
2022-10-21T15:00:06.330Z,24.29
2022-10-21T15:02:35.947Z,24.31
2022-10-21T15:05:25.010Z,24.31
2022-10-21T15:07:51.275Z,24.31
2022-10-21T15:10:19.145Z,24.33
2022-10-21T15:12:53.395Z,24.34
2022-10-21T15:15:39.611Z,24.38
2022-10-21T15:18:26.356Z,24.39
2022-10-21T15:21:06.730Z,24.40
2022-10-21T15:23:41.299Z,24.38
2022-10-21T15:26:24.772Z,24.35
2022-10-21T15:28:52.119Z,24.31
2022-10-21T15:31:25.292Z,24.26
2022-10-21T15:33:53.192Z,24.21
2022-10-21T15:36:19.846Z,24.17
2022-10-21T15:38:47.064Z,24.10
2022-10-21T15:41:14.472Z,24.06
2022-10-21T15:43:42.117Z,24.02
2022-10-21T15:46:08.698Z,23.99
2022-10-21T15:48:35.383Z,23.97
2022-10-21T15:51:01.665Z,23.96
2022-10-21T15:53:28.007Z,23.95
2022-10-21T15:55:54.675Z,23.94
2022-10-21T15:58:20.894Z,23.92
2022-10-21T16:00:47.300Z,23.90
2022-10-21T16:03:13.567Z,23.87
2022-10-21T16:05:40.096Z,23.83
2022-10-21T16:08:06.541Z,23.81
2022-10-21T16:10:35.195Z,23.76
2022-10-21T16:13:01.839Z,23.71
2022-10-21T16:15:28.101Z,23.66
2022-10-21T16:17:55.748Z,23.60
2022-10-21T16:20:25.986Z,23.56
2022-10-21T16:22:52.426Z,23.51
2022-10-21T16:25:19.050Z,23.49
2022-10-21T16:27:55.807Z,23.46
2022-10-21T16:30:24.624Z,23.42
2022-10-21T16:32:51.412Z,23.40
2022-10-21T16:35:18.559Z,23.38
2022-10-21T16:37:44.859Z,23.37
2022-10-21T16:40:16.711Z,23.36
2022-10-21T16:42:43.141Z,23.36
2022-10-21T16:45:09.660Z,23.35
2022-10-21T16:47:37.006Z,23.35
2022-10-21T16:50:03.976Z,23.34
2022-10-21T16:52:30.259Z,23.33
2022-10-21T16:54:56.681Z,23.30
2022-10-21T16:57:23.139Z,23.27
2022-10-21T16:59:49.433Z,23.23
2022-10-21T17:02:16.807Z,23.18
2022-10-21T17:04:43.457Z,23.13
2022-10-21T17:07:10.468Z,23.07
2022-10-21T17:09:36.952Z,23.01
2022-10-21T17:12:04.394Z,22.95
2022-10-21T17:14:31.116Z,22.90
2022-10-21T17:16:57.883Z,22.83
2022-10-21T17:19:24.205Z,22.76
2022-10-21T17:21:50.683Z,22.69
2022-10-21T17:24:18.306Z,22.62
2022-10-21T17:26:46.363Z,22.58
2022-10-21T17:29:12.634Z,22.51
2022-10-21T17:31:39.931Z,22.44
2022-10-21T17:34:07.452Z,22.39
2022-10-21T17:36:34.518Z,22.33
2022-10-21T17:39:00.953Z,22.28
2022-10-21T17:41:27.219Z,22.23
2022-10-21T17:43:53.530Z,22.19
2022-10-21T17:46:20.845Z,22.15
2022-10-21T17:48:54.338Z,22.09
2022-10-21T17:51:21.457Z,22.04
2022-10-21T17:53:48.983Z,22.00
2022-10-21T17:56:15.531Z,21.95
2022-10-21T17:58:41.751Z,21.91
2022-10-21T18:01:09.641Z,21.89
2022-10-21T18:03:36.523Z,21.84
2022-10-21T18:06:07.518Z,21.80
2022-10-21T18:08:34.690Z,21.76
2022-10-21T18:11:02.232Z,21.71
2022-10-21T18:13:29.713Z,21.68
2022-10-21T18:16:01.116Z,21.64
2022-10-21T18:18:27.645Z,21.61
2022-10-21T18:20:53.912Z,21.60
2022-10-21T18:23:20.548Z,21.59
2022-10-21T18:25:46.926Z,21.58
2022-10-21T18:28:13.229Z,21.57
2022-10-21T18:30:43.022Z,21.54
2022-10-21T18:33:10.346Z,21.52
2022-10-21T18:35:36.969Z,21.51
2022-10-21T18:38:03.991Z,21.50
2022-10-21T18:40:30.298Z,21.49
2022-10-21T18:42:56.591Z,21.50
2022-10-21T18:45:23.316Z,21.50
2022-10-21T18:47:52.528Z,21.50
2022-10-21T18:50:18.756Z,21.51
2022-10-21T18:52:44.977Z,21.52
2022-10-21T18:55:11.312Z,21.53
2022-10-21T18:57:38.266Z,21.53
2022-10-21T19:00:05.467Z,21.53
2022-10-21T19:02:31.888Z,21.52
2022-10-21T19:05:01.176Z,21.52
2022-10-21T19:07:28.759Z,21.53
2022-10-21T19:09:55.039Z,21.52
2022-10-21T19:12:23.587Z,21.53
2022-10-21T19:14:50.576Z,21.53
2022-10-21T19:17:17.001Z,21.51
2022-10-21T19:19:43.462Z,21.52
2022-10-21T19:22:09.796Z,21.50
2022-10-21T19:24:36.066Z,21.49
2022-10-21T19:27:02.566Z,21.49
2022-10-21T19:29:28.814Z,21.46
2022-10-21T19:31:57.002Z,21.43
2022-10-21T19:34:26.145Z,21.42
2022-10-21T19:36:52.433Z,21.41
2022-10-21T19:39:18.658Z,21.39
2022-10-21T19:41:45.181Z,21.38
2022-10-21T19:44:11.557Z,21.37
2022-10-21T19:46:37.785Z,21.36
2022-10-21T19:49:05.731Z,21.35
2022-10-21T19:51:32.138Z,21.33
2022-10-21T19:53:58.432Z,21.32
2022-10-21T19:56:26.940Z,21.31
2022-10-21T19:58:54.400Z,21.30
2022-10-21T20:01:23.354Z,21.29
2022-10-21T20:03:50.418Z,21.29
2022-10-21T20:06:18.239Z,21.27
2022-10-21T20:08:44.627Z,21.27
2022-10-21T20:11:13.554Z,21.27
2022-10-21T20:13:41.224Z,21.26
2022-10-21T20:16:08.125Z,21.27
2022-10-21T20:18:34.896Z,21.27
2022-10-21T20:21:05.440Z,21.28
2022-10-21T20:23:31.715Z,21.28
2022-10-21T20:25:58.798Z,21.27
2022-10-21T20:28:28.442Z,21.26
2022-10-21T20:30:58.389Z,21.25
2022-10-21T20:33:24.771Z,21.25
2022-10-21T20:35:51.199Z,21.24
2022-10-21T20:38:17.458Z,21.23
2022-10-21T20:40:43.741Z,21.21
2022-10-21T20:43:10.015Z,21.19
2022-10-21T20:45:36.272Z,21.16
2022-10-21T20:48:02.614Z,21.12
2022-10-21T20:50:28.902Z,21.10
2022-10-21T20:52:55.170Z,21.07
2022-10-21T20:55:21.407Z,21.03
2022-10-21T20:57:47.722Z,21.00
2022-10-21T21:00:14.285Z,20.96
2022-10-21T21:02:40.553Z,20.94
2022-10-21T21:05:07.267Z,20.91
2022-10-21T21:07:33.714Z,20.88
2022-10-21T21:10:03.705Z,20.86
2022-10-21T21:12:30.364Z,20.84
2022-10-21T21:14:56.911Z,20.82
2022-10-21T21:17:23.504Z,20.81
2022-10-21T21:19:51.061Z,20.82
2022-10-21T21:22:17.604Z,20.82
2022-10-21T21:24:44.130Z,20.82
2022-10-21T21:27:10.377Z,20.81
2022-10-21T21:29:36.722Z,20.81
2022-10-21T21:32:02.994Z,20.80
2022-10-21T21:34:29.295Z,20.78
2022-10-21T21:36:55.618Z,20.76
2022-10-21T21:39:21.845Z,20.74
2022-10-21T21:41:48.424Z,20.74
2022-10-21T21:44:14.690Z,20.71
2022-10-21T21:46:40.955Z,20.71
2022-10-21T21:49:07.289Z,20.68
2022-10-21T21:51:35.112Z,20.65
2022-10-21T21:54:01.499Z,20.62
2022-10-21T21:56:28.231Z,20.58
2022-10-21T21:58:57.203Z,20.54
2022-10-21T22:01:25.337Z,20.50
2022-10-21T22:03:52.201Z,20.47
2022-10-21T22:06:19.811Z,20.43
2022-10-21T22:08:46.480Z,20.40
2022-10-21T22:11:15.897Z,20.35
2022-10-21T22:13:42.525Z,20.29
2022-10-21T22:16:10.104Z,20.26
2022-10-21T22:18:36.433Z,20.22
2022-10-21T22:21:07.422Z,20.19
2022-10-21T22:23:33.666Z,20.16
2022-10-21T22:26:00.124Z,20.14
2022-10-21T22:28:26.584Z,20.10
2022-10-21T22:30:57.261Z,20.07
2022-10-21T22:33:24.019Z,20.03
2022-10-21T22:35:50.615Z,20.02
2022-10-21T22:38:16.875Z,19.99
2022-10-21T22:40:43.123Z,19.96
2022-10-21T22:43:09.342Z,19.94
2022-10-21T22:45:35.558Z,19.92
2022-10-21T22:48:01.966Z,19.89
2022-10-21T22:50:28.241Z,19.88
2022-10-21T22:52:54.501Z,19.87
2022-10-21T22:55:21.030Z,19.86
2022-10-21T22:57:47.713Z,19.86
2022-10-21T23:00:14.106Z,19.85
2022-10-21T23:02:40.496Z,19.86
2022-10-21T23:05:07.109Z,19.85
2022-10-21T23:07:33.338Z,19.84
2022-10-21T23:09:59.680Z,19.84
2022-10-21T23:12:25.961Z,19.82
2022-10-21T23:14:52.186Z,19.82
2022-10-21T23:17:18.604Z,19.81
2022-10-21T23:19:44.879Z,19.79
2022-10-21T23:22:11.168Z,19.77
2022-10-21T23:24:37.725Z,19.75
2022-10-21T23:27:04.428Z,19.73
2022-10-21T23:29:30.731Z,19.72
2022-10-21T23:31:57.396Z,19.71
2022-10-21T23:34:23.816Z,19.68
2022-10-21T23:36:50.075Z,19.68
2022-10-21T23:39:16.351Z,19.66
2022-10-21T23:41:42.767Z,19.66
2022-10-21T23:44:09.003Z,19.65
2022-10-21T23:46:35.527Z,19.64
2022-10-21T23:49:01.748Z,19.63
2022-10-21T23:51:28.263Z,19.63
2022-10-21T23:53:54.482Z,19.62
2022-10-21T23:56:21.029Z,19.64
2022-10-21T23:58:47.462Z,19.63
